Decoded Metar for KMAN ( in ) (IATA:) | Meteo·Mobile Aviation Weather
aviador You're here:

KMAN Decoded Metar

in
Report Time2019-05-22 06:35:00
UTC Time2019-05-22 06:48:24
Flight Rules vfr VFR
Wind290° at 08 kt
W.Decomp.*RWY 29: 8.0 kt HW 0 kt LCW
Visibility9999 m
Phenomena:N/A
Clouds:N/A
Expected CloudBase > 400 ft AGL from Temp-Dew spread
CeilingNone
Temp11°C
Dew Point10°C (94% RH)
AAT8.2°C
QNH1004 hPa
Raw Report
METAR KMAN 220635Z AUTO 29008KT 10SM CLR 11/10 A2964 RMK A01=

Extra information for KMAN:More info

Social comments